createdAt,value
2022-11-05T00:00:02.353Z,11.5
2022-11-05T00:01:01.532Z,11.5
2022-11-05T00:02:01.598Z,11.5
2022-11-05T00:03:01.544Z,11.5
2022-11-05T00:04:01.581Z,11.5
2022-11-05T00:05:01.621Z,11.5
2022-11-05T00:06:01.682Z,11.3
2022-11-05T00:07:01.580Z,11.4
2022-11-05T00:08:01.574Z,11.5
2022-11-05T00:09:01.513Z,11.5
2022-11-05T00:10:01.484Z,11.4
2022-11-05T00:11:01.327Z,11.3
2022-11-05T00:12:02.333Z,11.4
2022-11-05T00:13:02.285Z,11.3
2022-11-05T00:14:02.266Z,11.3
2022-11-05T00:15:02.184Z,11.3
2022-11-05T00:16:02.287Z,11.2
2022-11-05T00:17:02.284Z,11.2
2022-11-05T00:18:02.244Z,11.3
2022-11-05T00:19:02.175Z,11.4
2022-11-05T00:20:02.117Z,11.3
2022-11-05T00:21:02.093Z,11.3
2022-11-05T00:22:02.010Z,11.2
2022-11-05T00:23:01.977Z,11.1
2022-11-05T00:24:01.971Z,11.1
2022-11-05T00:25:01.873Z,11
2022-11-05T00:26:01.795Z,11.1
2022-11-05T00:27:01.768Z,11.1
2022-11-05T00:28:01.683Z,11.1
2022-11-05T00:29:01.738Z,11.1
2022-11-05T00:30:01.652Z,11
2022-11-05T00:31:01.519Z,11
2022-11-05T00:32:01.834Z,11
2022-11-05T00:33:01.752Z,10.9
2022-11-05T00:34:01.686Z,11.1
2022-11-05T00:35:01.663Z,11.1
2022-11-05T00:36:01.572Z,11
2022-11-05T00:37:01.519Z,10.9
2022-11-05T00:38:01.742Z,11
2022-11-05T00:39:01.691Z,11
2022-11-05T00:40:01.712Z,10.9
2022-11-05T00:41:01.600Z,10.9
2022-11-05T00:42:01.523Z,10.9
2022-11-05T00:43:01.383Z,10.9
2022-11-05T00:44:02.323Z,10.8
2022-11-05T00:45:02.344Z,10.8
2022-11-05T00:46:02.308Z,10.8
2022-11-05T00:47:02.272Z,10.8
2022-11-05T00:48:02.216Z,10.7
2022-11-05T00:49:02.202Z,10.6
2022-11-05T00:50:02.133Z,10.6
2022-11-05T00:51:02.136Z,10.6
2022-11-05T00:52:02.050Z,10.6
2022-11-05T00:53:01.985Z,10.5
2022-11-05T00:54:01.953Z,10.5
2022-11-05T00:55:01.863Z,10.6
2022-11-05T00:56:02.102Z,10.7
2022-11-05T00:57:04.575Z,10.6
2022-11-05T00:58:01.631Z,10.6
2022-11-05T00:59:01.677Z,10.5
2022-11-05T01:00:01.604Z,10.5
2022-11-05T01:01:01.417Z,10.5
2022-11-05T01:02:01.495Z,10.5
2022-11-05T01:03:01.610Z,10.5
2022-11-05T01:04:01.559Z,10.4
2022-11-05T01:05:01.529Z,10.5
2022-11-05T01:06:01.426Z,10.5
2022-11-05T01:07:01.280Z,10.4
2022-11-05T01:08:02.267Z,10.6
2022-11-05T01:09:02.189Z,10.5
2022-11-05T01:10:02.207Z,10.4
2022-11-05T01:11:02.103Z,10.3
2022-11-05T01:12:02.075Z,10.4
2022-11-05T01:13:02.000Z,10.4
2022-11-05T01:14:01.970Z,10.3
2022-11-05T01:15:01.908Z,10.3
2022-11-05T01:16:01.825Z,10.3
2022-11-05T01:17:01.757Z,10.3
2022-11-05T01:18:01.832Z,10.3
2022-11-05T01:19:01.726Z,10.3
2022-11-05T01:20:01.772Z,10.3
2022-11-05T01:21:01.656Z,10.3
2022-11-05T01:22:01.706Z,10.4
2022-11-05T01:23:01.587Z,10.4
2022-11-05T01:24:01.565Z,10.3
2022-11-05T01:25:01.437Z,10.2
2022-11-05T01:26:01.495Z,10.2
2022-11-05T01:27:01.378Z,10.3
2022-11-05T01:28:02.355Z,10.1
2022-11-05T01:29:02.327Z,10.1
2022-11-05T01:30:02.348Z,10.2
2022-11-05T01:31:02.372Z,10.2
2022-11-05T01:32:02.339Z,10.1
2022-11-05T01:33:02.274Z,10.2
2022-11-05T01:34:02.267Z,10.2
2022-11-05T01:35:02.158Z,10.2
2022-11-05T01:36:02.171Z,10.1
2022-11-05T01:37:02.119Z,10.2
2022-11-05T01:38:02.064Z,10.2
2022-11-05T01:39:01.981Z,10.1
2022-11-05T01:40:01.910Z,10.2
2022-11-05T01:41:02.278Z,10.3
2022-11-05T01:42:02.229Z,10.3
2022-11-05T01:43:02.178Z,10.2
2022-11-05T01:44:02.114Z,10.2
2022-11-05T01:45:02.113Z,10.3
2022-11-05T01:46:01.744Z,10.2
2022-11-05T01:47:01.668Z,10.1
2022-11-05T01:48:02.027Z,10.2
2022-11-05T01:49:03.249Z,10
2022-11-05T01:50:01.400Z,10.2
2022-11-05T01:51:01.373Z,10.2
2022-11-05T01:52:02.310Z,10.2
2022-11-05T01:53:02.263Z,10.2
2022-11-05T01:54:02.233Z,10.1
2022-11-05T01:55:02.168Z,10.1
2022-11-05T01:56:02.130Z,10
2022-11-05T01:57:02.050Z,10.1
2022-11-05T01:58:01.993Z,10.1
2022-11-05T01:59:01.940Z,10
2022-11-05T02:00:01.864Z,10.1
2022-11-05T02:01:01.586Z,10.1
2022-11-05T02:02:01.661Z,10
2022-11-05T02:03:01.972Z,10.1
2022-11-05T02:04:01.970Z,10.1
2022-11-05T02:05:01.928Z,9.9
2022-11-05T02:06:01.826Z,10
2022-11-05T02:07:01.774Z,9.9
2022-11-05T02:08:01.721Z,10
2022-11-05T02:09:01.657Z,9.9
2022-11-05T02:10:01.702Z,9.9
2022-11-05T02:11:01.541Z,9.9
2022-11-05T02:12:01.522Z,10
2022-11-05T02:13:01.428Z,9.9
2022-11-05T02:14:01.410Z,9.9
2022-11-05T02:15:02.395Z,9.9
2022-11-05T02:16:02.004Z,9.9
2022-11-05T02:17:01.972Z,9.9
2022-11-05T02:18:01.916Z,9.8
2022-11-05T02:19:01.848Z,9.9
2022-11-05T02:20:01.823Z,9.9
2022-11-05T02:21:01.754Z,9.9
2022-11-05T02:22:01.653Z,9.9
2022-11-05T02:23:01.590Z,9.9
2022-11-05T02:24:01.466Z,9.9
2022-11-05T02:25:01.411Z,10.1
2022-11-05T02:26:02.354Z,10.1
2022-11-05T02:27:02.271Z,9.9
2022-11-05T02:28:02.244Z,10
2022-11-05T02:29:02.163Z,10.1
2022-11-05T02:30:02.171Z,10
2022-11-05T02:31:02.104Z,9.9
2022-11-05T02:32:02.160Z,10
2022-11-05T02:33:02.002Z,10
2022-11-05T02:34:02.031Z,10
2022-11-05T02:35:02.139Z,10
2022-11-05T02:36:01.992Z,10
2022-11-05T02:37:01.948Z,9.9
2022-11-05T02:38:01.941Z,10
2022-11-05T02:39:01.844Z,9.9
2022-11-05T02:40:01.773Z,9.9
2022-11-05T02:41:02.238Z,9.9
2022-11-05T02:42:04.880Z,10
2022-11-05T02:43:02.133Z,10
2022-11-05T02:44:02.162Z,10
2022-11-05T02:45:01.990Z,9.9
2022-11-05T02:46:01.961Z,9.9
2022-11-05T02:47:02.248Z,10
2022-11-05T02:48:02.101Z,9.9
2022-11-05T02:49:02.219Z,10
2022-11-05T02:50:02.071Z,9.9
2022-11-05T02:51:02.183Z,10
2022-11-05T02:52:02.044Z,10
2022-11-05T02:53:01.994Z,9.9
2022-11-05T02:54:02.034Z,10
2022-11-05T02:55:01.913Z,10
2022-11-05T02:56:01.939Z,10
2022-11-05T02:57:01.938Z,9.9
2022-11-05T02:58:01.832Z,9.9
2022-11-05T02:59:01.807Z,10
2022-11-05T03:00:01.987Z,10.1
2022-11-05T03:01:01.490Z,10.1
2022-11-05T03:02:01.668Z,10
2022-11-05T03:03:02.064Z,10
2022-11-05T03:04:02.255Z,10
2022-11-05T03:05:02.299Z,10.1
2022-11-05T03:06:01.700Z,10
2022-11-05T03:07:01.684Z,9.9
2022-11-05T03:08:01.543Z,10.1
2022-11-05T03:09:01.551Z,10.1
2022-11-05T03:10:01.376Z,10.1
2022-11-05T03:11:02.421Z,10.1
2022-11-05T03:12:02.275Z,9.9
2022-11-05T03:13:02.355Z,10.1
2022-11-05T03:14:02.186Z,10.1
2022-11-05T03:15:02.220Z,10.1
2022-11-05T03:16:02.124Z,10.1
2022-11-05T03:17:02.178Z,10
2022-11-05T03:18:02.014Z,9.9
2022-11-05T03:19:02.378Z,10
2022-11-05T03:20:02.302Z,9.9
2022-11-05T03:21:02.159Z,10
2022-11-05T03:22:02.136Z,10
2022-11-05T03:23:02.018Z,10
2022-11-05T03:24:01.976Z,10
2022-11-05T03:25:02.038Z,10.1
2022-11-05T03:26:01.878Z,10.1
2022-11-05T03:27:02.147Z,10
2022-11-05T03:28:02.189Z,10
2022-11-05T03:29:02.010Z,10
2022-11-05T03:30:02.242Z,10
2022-11-05T03:31:02.167Z,10
2022-11-05T03:32:02.191Z,10
2022-11-05T03:33:02.056Z,10
2022-11-05T03:34:01.999Z,9.9
2022-11-05T03:35:02.135Z,10
2022-11-05T03:36:01.973Z,10.1
2022-11-05T03:37:01.972Z,10
2022-11-05T03:38:02.033Z,10
2022-11-05T03:39:01.877Z,10
2022-11-05T03:40:01.798Z,10.1
2022-11-05T03:41:01.847Z,10
2022-11-05T03:42:01.701Z,9.9
2022-11-05T03:43:01.702Z,9.8
2022-11-05T03:44:01.529Z,9.9
2022-11-05T03:45:01.478Z,9.8
2022-11-05T03:46:01.348Z,9.8
2022-11-05T03:47:02.349Z,9.8
2022-11-05T03:48:02.301Z,9.9
2022-11-05T03:49:02.344Z,9.9
2022-11-05T03:50:01.394Z,10
2022-11-05T03:51:02.437Z,9.9
2022-11-05T03:52:02.299Z,9.9
2022-11-05T03:53:02.355Z,9.8
2022-11-05T03:54:02.240Z,10
2022-11-05T03:55:02.248Z,9.9
2022-11-05T03:56:02.272Z,9.9
2022-11-05T03:57:02.294Z,9.8
2022-11-05T03:58:02.201Z,10
2022-11-05T03:59:02.255Z,9.8
2022-11-05T04:00:02.208Z,9.8
2022-11-05T04:01:01.900Z,9.7
2022-11-05T04:02:01.998Z,9.6
2022-11-05T04:03:02.375Z,9.7
2022-11-05T04:04:01.379Z,9.8
2022-11-05T04:05:02.461Z,9.7
2022-11-05T04:06:02.295Z,9.6
2022-11-05T04:07:02.295Z,9.7
2022-11-05T04:08:02.175Z,9.7
2022-11-05T04:09:02.256Z,9.7
2022-11-05T04:10:02.105Z,9.7
2022-11-05T04:11:02.272Z,9.8
2022-11-05T04:12:02.152Z,9.6
2022-11-05T04:13:02.196Z,9.5
2022-11-05T04:14:02.055Z,9.6
2022-11-05T04:15:01.984Z,9.6
2022-11-05T04:16:02.030Z,9.8
2022-11-05T04:17:02.233Z,9.8
2022-11-05T04:18:02.080Z,9.7
2022-11-05T04:19:02.212Z,9.7
2022-11-05T04:20:02.062Z,9.6
2022-11-05T04:21:02.028Z,9.7
2022-11-05T04:22:02.066Z,9.7
2022-11-05T04:23:01.935Z,9.7
2022-11-05T04:24:01.831Z,9.6
2022-11-05T04:25:01.854Z,9.6
2022-11-05T04:26:01.661Z,9.5
2022-11-05T04:27:01.655Z,9.6
2022-11-05T04:28:01.469Z,9.7
2022-11-05T04:29:06.818Z,9.6
2022-11-05T04:30:01.738Z,9.6
2022-11-05T04:31:01.414Z,9.5
2022-11-05T04:32:01.415Z,9.6
2022-11-05T04:33:02.371Z,9.7
2022-11-05T04:34:02.256Z,9.5
2022-11-05T04:35:02.312Z,9.6
2022-11-05T04:36:02.159Z,9.6
2022-11-05T04:37:02.186Z,9.5
2022-11-05T04:38:02.081Z,9.5
2022-11-05T04:39:02.028Z,9.6
2022-11-05T04:40:02.164Z,9.5
2022-11-05T04:41:02.003Z,9.6
2022-11-05T04:42:01.950Z,9.6
2022-11-05T04:43:02.074Z,9.5
2022-11-05T04:44:01.900Z,9.7
2022-11-05T04:45:01.924Z,9.6
2022-11-05T04:46:02.019Z,9.5
2022-11-05T04:47:02.147Z,9.6
2022-11-05T04:48:01.987Z,9.6
2022-11-05T04:49:01.924Z,9.7
2022-11-05T04:50:01.964Z,9.5
2022-11-05T04:51:02.360Z,9.5
2022-11-05T04:52:02.200Z,9.6
2022-11-05T04:53:02.269Z,9.7
2022-11-05T04:54:02.135Z,9.7
2022-11-05T04:55:02.186Z,9.7
2022-11-05T04:56:01.399Z,9.7
2022-11-05T04:57:01.370Z,9.6
2022-11-05T04:58:02.365Z,9.9
2022-11-05T04:59:02.215Z,9.9
2022-11-05T05:00:02.283Z,9.9
2022-11-05T05:01:02.123Z,9.7
2022-11-05T05:02:02.355Z,9.9
2022-11-05T05:03:01.398Z,9.7
2022-11-05T05:04:01.446Z,9.7
2022-11-05T05:05:02.358Z,9.6
2022-11-05T05:06:03.856Z,9.6
2022-11-05T05:07:02.154Z,9.7
2022-11-05T05:08:02.185Z,9.6
2022-11-05T05:09:02.277Z,9.7
2022-11-05T05:10:02.137Z,9.7
2022-11-05T05:11:02.147Z,9.7
2022-11-05T05:12:02.068Z,9.7
2022-11-05T05:13:02.014Z,9.7
2022-11-05T05:14:01.532Z,9.7
2022-11-05T05:15:01.529Z,9.8
2022-11-05T05:16:02.377Z,9.7
2022-11-05T05:17:02.270Z,9.7
2022-11-05T05:18:02.316Z,9.7
2022-11-05T05:19:02.244Z,9.7
2022-11-05T05:20:02.260Z,9.7
2022-11-05T05:21:02.119Z,9.6
2022-11-05T05:22:02.165Z,9.6
2022-11-05T05:23:02.024Z,9.6
2022-11-05T05:24:01.947Z,9.6
2022-11-05T05:25:02.019Z,9.6
2022-11-05T05:26:01.805Z,9.6
2022-11-05T05:27:01.765Z,9.6
2022-11-05T05:28:01.739Z,9.7
2022-11-05T05:29:01.639Z,9.6
2022-11-05T05:30:01.690Z,9.5
2022-11-05T05:31:01.635Z,9.6
2022-11-05T05:32:01.606Z,9.5
2022-11-05T05:33:01.423Z,9.5
2022-11-05T05:34:01.414Z,9.5
2022-11-05T05:35:02.344Z,9.5
2022-11-05T05:36:04.658Z,9.6
2022-11-05T05:37:02.172Z,9.7
2022-11-05T05:38:02.259Z,9.7
2022-11-05T05:39:02.130Z,9.6
2022-11-05T05:40:02.219Z,9.6
2022-11-05T05:41:02.039Z,9.6
2022-11-05T05:42:02.087Z,9.5
2022-11-05T05:43:01.923Z,9.6
2022-11-05T05:44:01.930Z,9.4
2022-11-05T05:45:01.991Z,9.5
2022-11-05T05:46:01.649Z,9.6
2022-11-05T05:47:01.648Z,9.5
2022-11-05T05:48:01.580Z,9.6
2022-11-05T05:49:01.387Z,9.6
2022-11-05T05:50:02.439Z,9.6
2022-11-05T05:51:02.303Z,9.5
2022-11-05T05:52:02.342Z,9.5
2022-11-05T05:53:01.578Z,9.4
2022-11-05T05:54:01.570Z,9.5
2022-11-05T05:55:01.412Z,9.4
2022-11-05T05:56:01.397Z,9.5
2022-11-05T05:57:02.376Z,9.5
2022-11-05T05:58:02.247Z,9.5
2022-11-05T05:59:01.471Z,9.4
2022-11-05T06:00:01.407Z,9.5
2022-11-05T06:01:02.210Z,9.5
2022-11-05T06:02:02.334Z,9.5
2022-11-05T06:03:01.514Z,9.5
2022-11-05T06:04:01.613Z,9.5
2022-11-05T06:05:01.422Z,9.5
2022-11-05T06:06:01.414Z,9.4
2022-11-05T06:07:02.342Z,9.3
2022-11-05T06:08:02.273Z,9.4
2022-11-05T06:09:02.324Z,9.4
2022-11-05T06:10:02.168Z,9.3
2022-11-05T06:11:02.324Z,9.3
2022-11-05T06:12:01.468Z,9.3
2022-11-05T06:13:01.469Z,9.4
2022-11-05T06:14:02.402Z,9.4
2022-11-05T06:15:02.257Z,9.4
2022-11-05T06:16:01.351Z,9.2
2022-11-05T06:17:01.715Z,9.4
2022-11-05T06:18:01.514Z,9.3
2022-11-05T06:19:01.509Z,9.4
2022-11-05T06:20:01.298Z,9.3
2022-11-05T06:21:01.840Z,9.3
2022-11-05T06:22:01.634Z,9.4
2022-11-05T06:23:02.311Z,9.4
2022-11-05T06:24:02.225Z,9.4
2022-11-05T06:25:02.288Z,9.4
2022-11-05T06:26:02.151Z,9.3
2022-11-05T06:27:02.205Z,9.3
2022-11-05T06:28:02.137Z,9.3
2022-11-05T06:29:02.208Z,9.4
2022-11-05T06:30:02.129Z,9.4
2022-11-05T06:31:02.051Z,9.3
2022-11-05T06:32:02.168Z,9.4
2022-11-05T06:33:01.994Z,9.4
2022-11-05T06:34:01.945Z,9.4
2022-11-05T06:35:01.936Z,9.4
2022-11-05T06:36:01.718Z,9.5
2022-11-05T06:37:01.615Z,9.4
2022-11-05T06:38:01.559Z,9.4
2022-11-05T06:39:01.392Z,9.2
2022-11-05T06:40:01.405Z,9.4
2022-11-05T06:41:05.777Z,9.3
2022-11-05T06:42:17.684Z,9.3
2022-11-05T06:43:02.177Z,9.2
2022-11-05T06:44:02.292Z,9.4
2022-11-05T06:45:02.145Z,9.3
2022-11-05T06:46:01.838Z,9.3
2022-11-05T06:47:01.833Z,9.3
2022-11-05T06:48:01.663Z,9.3
2022-11-05T06:49:01.629Z,9.2
2022-11-05T06:50:01.422Z,9.2
2022-11-05T06:51:01.429Z,9.3
2022-11-05T06:52:02.360Z,9.3
2022-11-05T06:53:01.302Z,9.3
2022-11-05T06:54:02.350Z,9.3
2022-11-05T06:55:02.233Z,9.3
2022-11-05T06:56:02.301Z,9.4
2022-11-05T06:57:02.197Z,9.5
2022-11-05T06:58:02.283Z,9.4
2022-11-05T06:59:02.149Z,9.3
2022-11-05T07:00:05.902Z,9.4
2022-11-05T07:01:02.084Z,9.3
2022-11-05T07:02:02.247Z,9.4
2022-11-05T07:03:02.307Z,9.4
2022-11-05T07:04:02.340Z,9.4
2022-11-05T07:05:02.227Z,9.4
2022-11-05T07:06:02.269Z,9.4
2022-11-05T07:07:02.124Z,9.5
2022-11-05T07:08:02.183Z,9.5
2022-11-05T07:09:02.035Z,9.5
2022-11-05T07:10:02.066Z,9.4
2022-11-05T07:11:01.956Z,9.2
2022-11-05T07:12:01.884Z,9.2
2022-11-05T07:13:06.711Z,9.2
2022-11-05T07:14:01.698Z,9.3
2022-11-05T07:15:01.714Z,9.4
2022-11-05T07:16:01.569Z,9.4
2022-11-05T07:17:01.541Z,9.3
2022-11-05T07:18:01.338Z,9.4
2022-11-05T07:19:02.790Z,9.4
2022-11-05T07:20:01.610Z,9.4
2022-11-05T07:21:01.578Z,9.4
2022-11-05T07:22:01.393Z,9.3
2022-11-05T07:23:01.540Z,9.4
2022-11-05T07:24:01.322Z,9.5
2022-11-05T07:25:02.388Z,9.4
2022-11-05T07:26:02.362Z,9.5
2022-11-05T07:27:02.249Z,9.5
2022-11-05T07:28:02.182Z,9.5
2022-11-05T07:29:02.221Z,9.5
2022-11-05T07:30:02.071Z,9.4
2022-11-05T07:31:01.879Z,9.5
2022-11-05T07:32:01.825Z,9.3
2022-11-05T07:33:01.670Z,9.4
2022-11-05T07:34:01.638Z,9.4
2022-11-05T07:35:01.432Z,9.5
2022-11-05T07:36:01.432Z,9.5
2022-11-05T07:37:02.381Z,9.2
2022-11-05T07:38:02.256Z,9.4
2022-11-05T07:39:02.285Z,9.4
2022-11-05T07:40:02.190Z,9.5
2022-11-05T07:41:02.265Z,9.4
2022-11-05T07:42:02.094Z,9.4
2022-11-05T07:43:02.125Z,9.5
2022-11-05T07:44:01.958Z,9.4
2022-11-05T07:45:01.860Z,9.5
2022-11-05T07:46:01.799Z,9.4
2022-11-05T07:47:01.770Z,9.4
2022-11-05T07:48:01.578Z,9.4
2022-11-05T07:49:01.566Z,9.4
2022-11-05T07:50:01.372Z,9.4
2022-11-05T07:51:02.468Z,9.4
2022-11-05T07:52:02.324Z,9.4
2022-11-05T07:53:02.290Z,9.4
2022-11-05T07:54:02.262Z,9.4
2022-11-05T07:55:02.292Z,9.3
2022-11-05T07:56:02.136Z,9.4
2022-11-05T07:57:02.201Z,9.4
2022-11-05T07:58:01.418Z,9.3
2022-11-05T07:59:01.439Z,9.4
2022-11-05T08:00:02.398Z,9.4
2022-11-05T08:01:02.096Z,9.4
2022-11-05T08:02:02.538Z,9.4
2022-11-05T08:03:07.065Z,9.4
2022-11-05T08:04:01.649Z,9.3
2022-11-05T08:05:01.624Z,9.4
2022-11-05T08:06:01.453Z,9.3
2022-11-05T08:07:01.442Z,9.2
2022-11-05T08:08:02.399Z,9.3
2022-11-05T08:09:02.255Z,9.4
2022-11-05T08:10:02.280Z,9.4
2022-11-05T08:11:02.275Z,9.4
2022-11-05T08:12:03.238Z,9.4
2022-11-05T08:13:02.258Z,9.4
2022-11-05T08:14:02.317Z,9.2
2022-11-05T08:15:02.192Z,9.3
2022-11-05T08:16:02.057Z,9.3
2022-11-05T08:17:02.068Z,9.3
2022-11-05T08:18:01.928Z,9.4
2022-11-05T08:19:01.795Z,9.4
2022-11-05T08:20:01.842Z,9.4
2022-11-05T08:21:02.020Z,9.4
2022-11-05T08:22:01.943Z,9.4
2022-11-05T08:23:01.947Z,9.2
2022-11-05T08:24:01.721Z,9.3
2022-11-05T08:25:06.529Z,9.4
2022-11-05T08:26:01.741Z,9.4
2022-11-05T08:27:01.850Z,9.3
2022-11-05T08:28:01.722Z,9.3
2022-11-05T08:29:01.750Z,9.3
2022-11-05T08:30:01.656Z,9.4
2022-11-05T08:31:01.594Z,9.4
2022-11-05T08:32:01.927Z,9.4
2022-11-05T08:33:01.708Z,9.5
2022-11-05T08:34:02.737Z,9.5
2022-11-05T08:35:01.780Z,9.4
2022-11-05T08:36:01.781Z,9.5
2022-11-05T08:37:01.589Z,9.5
2022-11-05T08:38:01.584Z,9.5
2022-11-05T08:39:01.513Z,9.6
2022-11-05T08:40:01.350Z,9.5
2022-11-05T08:41:02.417Z,9.6
2022-11-05T08:42:02.240Z,9.6
2022-11-05T08:43:02.300Z,9.6
2022-11-05T08:44:02.184Z,9.5
2022-11-05T08:45:02.179Z,9.4
2022-11-05T08:46:01.804Z,9.5
2022-11-05T08:47:01.709Z,9.5
2022-11-05T08:48:01.756Z,9.5
2022-11-05T08:49:01.622Z,9.6
2022-11-05T08:50:01.624Z,9.5
2022-11-05T08:51:01.457Z,9.4
2022-11-05T08:52:01.501Z,9.5
2022-11-05T08:53:01.344Z,9.3
2022-11-05T08:54:02.417Z,9.4
2022-11-05T08:55:02.371Z,9.4
2022-11-05T08:56:02.274Z,9.4
2022-11-05T08:57:02.210Z,9.5
2022-11-05T08:58:02.284Z,9.5
2022-11-05T08:59:02.175Z,9.5
2022-11-05T09:00:01.432Z,9.5
2022-11-05T09:01:04.861Z,9.5
2022-11-05T09:02:01.664Z,9.5
2022-11-05T09:03:01.896Z,9.6
2022-11-05T09:04:01.699Z,9.5
2022-11-05T09:05:01.582Z,9.5
2022-11-05T09:06:02.080Z,9.4
2022-11-05T09:07:01.860Z,9.5
2022-11-05T09:08:01.830Z,9.4
2022-11-05T09:09:01.749Z,9.5
2022-11-05T09:10:01.540Z,9.6
2022-11-05T09:11:01.546Z,9.6
2022-11-05T09:12:12.040Z,9.6
2022-11-05T09:13:01.933Z,9.5
2022-11-05T09:14:02.019Z,9.5
2022-11-05T09:15:01.827Z,9.5
2022-11-05T09:16:01.622Z,9.3
2022-11-05T09:17:01.606Z,9.4
2022-11-05T09:18:01.455Z,9.6
2022-11-05T09:19:01.457Z,9.6
2022-11-05T09:20:02.374Z,9.5
2022-11-05T09:21:02.291Z,9.4
2022-11-05T09:22:02.316Z,9.6
2022-11-05T09:23:02.255Z,9.6
2022-11-05T09:24:02.323Z,9.7
2022-11-05T09:25:02.173Z,9.6
2022-11-05T09:26:02.230Z,9.5
2022-11-05T09:27:02.097Z,9.6
2022-11-05T09:28:02.117Z,9.7
2022-11-05T09:29:01.933Z,9.7
2022-11-05T09:30:01.873Z,9.7
2022-11-05T09:31:01.705Z,9.7
2022-11-05T09:32:01.663Z,9.7
2022-11-05T09:33:01.446Z,9.7
2022-11-05T09:34:01.468Z,9.7
2022-11-05T09:35:02.370Z,9.7
2022-11-05T09:36:02.264Z,9.8
2022-11-05T09:37:02.307Z,9.8
2022-11-05T09:38:02.218Z,9.9
2022-11-05T09:39:02.289Z,9.8
2022-11-05T09:40:02.154Z,9.9
2022-11-05T09:41:02.195Z,9.9
2022-11-05T09:42:02.097Z,9.6
2022-11-05T09:43:02.054Z,9.8
2022-11-05T09:44:02.061Z,9.8
2022-11-05T09:45:01.846Z,9.8
2022-11-05T09:46:01.647Z,9.7
2022-11-05T09:47:01.621Z,9.8
2022-11-05T09:48:01.478Z,9.8
2022-11-05T09:49:01.616Z,9.8
2022-11-05T09:50:01.433Z,9.8
2022-11-05T09:51:01.464Z,9.9
2022-11-05T09:52:02.392Z,9.9
2022-11-05T09:53:02.267Z,9.9
2022-11-05T09:54:02.321Z,9.9
2022-11-05T09:55:02.202Z,9.9
2022-11-05T09:56:02.317Z,9.9
2022-11-05T09:57:02.175Z,9.8
2022-11-05T09:58:02.232Z,9.8
2022-11-05T09:59:02.068Z,9.9
2022-11-05T10:00:02.171Z,9.9
2022-11-05T10:01:01.919Z,9.7
2022-11-05T10:02:02.040Z,9.9
2022-11-05T10:03:02.217Z,9.9
2022-11-05T10:04:02.209Z,10
2022-11-05T10:05:06.527Z,9.9
2022-11-05T10:06:02.175Z,9.9
2022-11-05T10:07:02.192Z,9.9
2022-11-05T10:08:02.006Z,9.9
2022-11-05T10:09:01.332Z,9.9
2022-11-05T10:10:02.380Z,9.8
2022-11-05T10:11:02.201Z,9.7
2022-11-05T10:12:01.606Z,9.7
2022-11-05T10:13:01.582Z,9.8
2022-11-05T10:14:01.417Z,9.9
2022-11-05T10:15:01.440Z,9.9
2022-11-05T10:16:02.366Z,9.9
2022-11-05T10:17:02.272Z,9.9
2022-11-05T10:18:02.356Z,9.9
2022-11-05T10:19:02.277Z,9.9
2022-11-05T10:20:02.329Z,9.9
2022-11-05T10:21:02.221Z,9.9
2022-11-05T10:22:06.816Z,9.8
2022-11-05T10:23:02.247Z,9.9
2022-11-05T10:24:02.296Z,9.9
2022-11-05T10:25:02.190Z,9.9
2022-11-05T10:26:02.233Z,9.9
2022-11-05T10:27:01.493Z,10
2022-11-05T10:28:02.442Z,10
2022-11-05T10:29:02.272Z,10
2022-11-05T10:30:02.706Z,10
2022-11-05T10:31:01.964Z,10
2022-11-05T10:32:01.976Z,9.9
2022-11-05T10:33:01.793Z,9.9
2022-11-05T10:34:01.680Z,9.9
2022-11-05T10:35:01.652Z,10
2022-11-05T10:36:01.447Z,10
2022-11-05T10:37:01.488Z,10
2022-11-05T10:38:01.455Z,9.9
2022-11-05T10:39:01.467Z,10
2022-11-05T10:40:02.405Z,10
2022-11-05T10:41:02.246Z,10.1
2022-11-05T10:42:02.276Z,10.1
2022-11-05T10:43:02.155Z,10
2022-11-05T10:44:02.169Z,10
2022-11-05T10:45:01.999Z,9.9
2022-11-05T10:46:01.717Z,10
2022-11-05T10:47:01.712Z,9.9
2022-11-05T10:48:01.507Z,10
2022-11-05T10:49:01.493Z,10.1
2022-11-05T10:50:01.359Z,10
2022-11-05T10:51:02.369Z,10.1
2022-11-05T10:52:02.249Z,10
2022-11-05T10:53:02.263Z,10
2022-11-05T10:54:02.390Z,10
2022-11-05T10:55:02.371Z,10
2022-11-05T10:56:02.285Z,10
2022-11-05T10:57:02.353Z,9.9
2022-11-05T10:58:02.193Z,10
2022-11-05T10:59:02.368Z,10
2022-11-05T11:00:02.305Z,10
2022-11-05T11:01:01.372Z,9.9
2022-11-05T11:02:01.588Z,10
2022-11-05T11:03:01.747Z,10
2022-11-05T11:04:01.650Z,10
2022-11-05T11:05:01.618Z,10
2022-11-05T11:06:01.424Z,10
2022-11-05T11:07:01.467Z,9.9
2022-11-05T11:08:02.430Z,10
2022-11-05T11:09:02.295Z,10
2022-11-05T11:10:02.363Z,9.9
2022-11-05T11:11:02.298Z,10
2022-11-05T11:12:02.349Z,10
2022-11-05T11:13:01.630Z,10
2022-11-05T11:14:01.630Z,10
2022-11-05T11:15:01.517Z,10.1
2022-11-05T11:16:01.490Z,10.1
2022-11-05T11:17:01.530Z,10.1
2022-11-05T11:18:01.373Z,10.1
2022-11-05T11:19:02.430Z,10.1
2022-11-05T11:20:02.285Z,10.1
2022-11-05T11:21:02.423Z,10.1
2022-11-05T11:22:02.281Z,10
2022-11-05T11:23:02.327Z,10
2022-11-05T11:24:02.186Z,10
2022-11-05T11:25:02.249Z,10.2
2022-11-05T11:26:02.031Z,10.1
2022-11-05T11:27:02.043Z,10.1
2022-11-05T11:28:01.876Z,10.1
2022-11-05T11:29:01.764Z,10
2022-11-05T11:30:01.735Z,10.1
2022-11-05T11:31:01.454Z,10.1
2022-11-05T11:32:01.499Z,10.1
2022-11-05T11:33:01.465Z,10.1
2022-11-05T11:34:02.430Z,10
2022-11-05T11:35:02.267Z,10.1
2022-11-05T11:36:02.306Z,10
2022-11-05T11:37:02.168Z,10.1
2022-11-05T11:38:02.222Z,10.1
2022-11-05T11:39:02.019Z,10
2022-11-05T11:40:02.037Z,10
2022-11-05T11:41:01.867Z,10.1
2022-11-05T11:42:01.771Z,10.1
2022-11-05T11:43:01.776Z,10.2
2022-11-05T11:44:01.652Z,10.1
2022-11-05T11:45:01.506Z,10.1
2022-11-05T11:46:05.512Z,10.2
2022-11-05T11:47:01.527Z,10.1
2022-11-05T11:48:01.568Z,10.2
2022-11-05T11:49:01.411Z,10.2
2022-11-05T11:50:01.386Z,10.2
2022-11-05T11:51:02.402Z,10.2
2022-11-05T11:52:02.238Z,10.2
2022-11-05T11:53:01.526Z,10.3
2022-11-05T11:54:01.356Z,10.2
2022-11-05T11:55:01.433Z,10.2
2022-11-05T11:56:01.417Z,10.2
2022-11-05T11:57:02.369Z,10.3
2022-11-05T11:58:02.285Z,10.3
2022-11-05T11:59:02.277Z,10.2
2022-11-05T12:00:09.581Z,10.2
2022-11-05T12:01:02.212Z,10.1
2022-11-05T12:02:02.426Z,10.1
2022-11-05T12:03:02.187Z,10.2
2022-11-05T12:04:01.422Z,10.2
2022-11-05T12:05:02.430Z,10.1
2022-11-05T12:06:01.356Z,10.2
2022-11-05T12:07:01.496Z,10.3
2022-11-05T12:08:01.365Z,10.2
2022-11-05T12:09:06.342Z,10.2
2022-11-05T12:10:01.806Z,10.2
2022-11-05T12:11:02.218Z,10.2
2022-11-05T12:12:02.234Z,10.2
2022-11-05T12:13:02.040Z,10.2
2022-11-05T12:14:02.044Z,10.2
2022-11-05T12:15:01.887Z,10.2
2022-11-05T12:16:01.805Z,10.1
2022-11-05T12:17:01.782Z,10.1
2022-11-05T12:18:01.663Z,10.2
2022-11-05T12:19:01.497Z,10.2
2022-11-05T12:20:01.381Z,10.2
2022-11-05T12:21:01.409Z,10.2
2022-11-05T12:22:01.448Z,10.2
2022-11-05T12:23:01.461Z,10.2
2022-11-05T12:24:01.385Z,10.2
2022-11-05T12:25:02.431Z,10.2
2022-11-05T12:26:02.317Z,10.2
2022-11-05T12:27:02.312Z,10.3
2022-11-05T12:28:02.212Z,10.2
2022-11-05T12:29:18.217Z,10.2
2022-11-05T12:30:02.270Z,10.2
2022-11-05T12:31:02.340Z,10.2
2022-11-05T12:32:02.401Z,10.2
2022-11-05T12:33:02.312Z,10.2
2022-11-05T12:34:01.557Z,10.2
2022-11-05T12:35:01.435Z,10.1
2022-11-05T12:36:01.417Z,10
2022-11-05T12:37:01.385Z,10.1
2022-11-05T12:38:01.464Z,10.1
2022-11-05T12:39:01.403Z,10
2022-11-05T12:40:01.439Z,10
2022-11-05T12:41:01.479Z,10
2022-11-05T12:42:01.499Z,10.1
2022-11-05T12:43:01.397Z,9.9
2022-11-05T12:44:01.432Z,9.9
2022-11-05T12:45:02.424Z,10
2022-11-05T12:46:02.091Z,10
2022-11-05T12:47:02.035Z,9.9
2022-11-05T12:48:01.886Z,9.9
2022-11-05T12:49:01.794Z,9.9
2022-11-05T12:50:01.764Z,9.9
2022-11-05T12:51:01.560Z,9.9
2022-11-05T12:52:01.562Z,9.9
2022-11-05T12:53:01.453Z,9.9
2022-11-05T12:54:01.430Z,10
2022-11-05T12:55:02.464Z,9.9
2022-11-05T12:56:02.320Z,9.9
2022-11-05T12:57:01.423Z,9.9
2022-11-05T12:58:02.418Z,9.9
2022-11-05T12:59:02.272Z,10
2022-11-05T13:00:02.292Z,10.1
2022-11-05T13:01:02.006Z,10.1
2022-11-05T13:02:02.165Z,10
2022-11-05T13:03:01.542Z,10
2022-11-05T13:04:01.592Z,10
2022-11-05T13:05:01.453Z,10
2022-11-05T13:06:04.627Z,10
2022-11-05T13:07:01.847Z,9.9
2022-11-05T13:08:01.757Z,10
2022-11-05T13:09:01.682Z,9.9
2022-11-05T13:10:01.580Z,9.9
2022-11-05T13:11:01.581Z,9.9
2022-11-05T13:12:01.400Z,10
2022-11-05T13:13:01.434Z,10
2022-11-05T13:14:02.378Z,9.9
2022-11-05T13:15:02.269Z,9.9
2022-11-05T13:16:02.070Z,9.9
2022-11-05T13:17:02.097Z,10
2022-11-05T13:18:02.456Z,10
2022-11-05T13:19:02.288Z,9.9
2022-11-05T13:20:02.273Z,9.8
2022-11-05T13:21:02.106Z,9.7
2022-11-05T13:22:02.079Z,9.8
2022-11-05T13:23:01.432Z,9.8
2022-11-05T13:24:01.446Z,9.9
2022-11-05T13:25:02.388Z,9.8
2022-11-05T13:26:02.258Z,9.8
2022-11-05T13:27:02.254Z,9.8
2022-11-05T13:28:02.060Z,9.9
2022-11-05T13:29:02.048Z,9.9
2022-11-05T13:30:01.833Z,9.9
2022-11-05T13:31:01.670Z,9.9
2022-11-05T13:32:01.736Z,9.9
2022-11-05T13:33:01.574Z,9.8
2022-11-05T13:34:01.597Z,9.9
2022-11-05T13:35:01.476Z,9.9
2022-11-05T13:36:01.543Z,9.9
2022-11-05T13:37:01.378Z,9.9
2022-11-05T13:38:02.435Z,9.9
2022-11-05T13:39:02.291Z,9.9
2022-11-05T13:40:02.311Z,9.9
2022-11-05T13:41:02.207Z,9.9
2022-11-05T13:42:01.532Z,9.8